< Typhoon 199625 1996 Season Typhoon 199701 >
Typhoon 199626 (FERN)
General InformationTrack Information on Google MapsDetailed Wind InformationList of All Images || Disaster Info.ResourceGoogle EarthGE AnimationAtom FeedGeoJSON
Detalied Best Track (Time Zone = UTC)
Year Month Day Hour Lat. Long. Pressure (hPa) Wind (kt) Class Image Chart
1996 12 21 00 7.6 140.1 1004 0 2 Image Chart
1996 12 21 06 8.3 140.2 1002 0 2 Image Chart
1996 12 21 12 8.6 140.5 1002 0 2 Image Chart
1996 12 21 18 8.6 140.8 1000 0 2 Image Chart
1996 12 22 00 8.8 140.9 1000 0 2 Image Chart
1996 12 22 06 9.1 140.8 1000 0 2 Image Chart
1996 12 22 12 9.3 140.6 998 0 2 Image Chart
1996 12 22 18 9.4 140.4 996 35 3 Image Chart
1996 12 23 00 9.5 140.1 996 35 3 Image Chart
1996 12 23 06 9.5 139.4 996 35 3 Image Chart
1996 12 23 12 9.4 139.2 996 35 3 Image Chart
1996 12 23 18 9.2 139.0 994 40 3 Image Chart
1996 12 24 00 9.0 139.0 994 40 3 Image Chart
1996 12 24 06 8.9 138.7 992 40 3 Image Chart
1996 12 24 12 8.9 138.4 988 50 4 Image Chart
1996 12 24 18 9.0 138.2 988 50 4 Image Chart
1996 12 25 00 9.3 138.1 988 50 4 Image Chart
1996 12 25 06 9.8 137.9 985 50 4 Image Chart
1996 12 25 12 10.1 137.9 985 50 4 Image Chart
1996 12 25 18 10.5 138.0 985 50 4 Image Chart
1996 12 26 00 10.8 138.4 985 50 4 Image Chart
1996 12 26 06 11.6 138.4 980 55 4 Image Chart
1996 12 26 12 12.1 138.4 975 60 4 Image Chart
1996 12 26 18 12.4 138.5 975 60 4 Image Chart
1996 12 27 00 12.8 138.8 975 60 4 Image Chart
1996 12 27 06 13.2 139.0 975 60 4 Image Chart
1996 12 27 12 13.8 139.1 975 60 4 Image Chart
1996 12 27 18 14.3 139.3 975 60 4 Image Chart
1996 12 28 00 14.7 139.8 980 60 4 Image Chart
1996 12 28 06 15.0 140.2 985 55 4 Image Chart
1996 12 28 12 16.1 141.1 985 50 4 Image Chart
1996 12 28 18 17.0 142.1 985 50 4 Image Chart
1996 12 29 00 17.7 143.1 990 45 3 Image Chart
1996 12 29 06 18.4 144.7 992 45 3 Image Chart
1996 12 29 12 19.1 146.3 992 45 3 Image Chart
1996 12 29 18 19.3 148.3 994 40 3 Image Chart
1996 12 30 00 19.9 150.4 998 0 6 Image Chart
1996 12 30 06 20.9 154.1 1000 0 6 Image Chart
1996 12 30 12 21.0 158.0 1004 0 6 Image Chart
Japan Meteorological Agency Best Track Data | Correction Date : 1997-01-07
< Typhoon 199625 1996 Season Typhoon 199701 >

Help